createdAt,value
2022-08-22T00:01:30.369Z,94.12
2022-08-22T00:02:44.326Z,91.46
2022-08-22T00:02:47.663Z,80.30
2022-08-22T00:02:49.197Z,89.00
2022-08-22T00:03:01.581Z,87.60
2022-08-22T00:03:07.476Z,85.04
2022-08-22T00:03:15.861Z,94.94
2022-08-22T00:03:16.084Z,94.12
2022-08-22T00:04:14.280Z,94.02
2022-08-22T00:05:27.584Z,94.02
2022-08-22T00:06:42.145Z,93.80
2022-08-22T00:08:05.365Z,94.27
2022-08-22T00:09:22.909Z,94.05
2022-08-22T00:10:35.200Z,93.71
2022-08-22T00:11:51.303Z,93.71
2022-08-22T00:13:05.099Z,93.79
2022-08-22T00:14:27.239Z,93.85
2022-08-22T00:15:46.250Z,92.83
2022-08-22T00:17:26.782Z,92.91
2022-08-22T00:18:36.352Z,92.91
2022-08-22T00:19:56.694Z,93.32
2022-08-22T00:21:12.844Z,93.55
2022-08-22T00:22:38.134Z,92.95
2022-08-22T00:23:59.821Z,93.47
2022-08-22T00:25:26.073Z,93.40
2022-08-22T00:26:45.496Z,93.13
2022-08-22T00:28:15.753Z,93.13
2022-08-22T00:29:29.695Z,93.66
2022-08-22T00:30:39.885Z,93.68
2022-08-22T00:31:49.436Z,93.78
2022-08-22T00:33:02.313Z,93.04
2022-08-22T00:34:18.236Z,92.85
2022-08-22T00:35:44.965Z,93.10
2022-08-22T00:36:52.672Z,92.67
2022-08-22T00:38:17.487Z,92.61
2022-08-22T00:39:24.456Z,92.69
2022-08-22T00:40:52.053Z,92.58
2022-08-22T00:42:31.803Z,92.57
2022-08-22T00:43:53.444Z,92.57
2022-08-22T00:45:12.141Z,92.69
2022-08-22T00:46:53.337Z,93.06
2022-08-22T00:48:17.917Z,93.06
2022-08-22T00:49:30.429Z,92.69
2022-08-22T00:50:57.949Z,92.43
2022-08-22T00:52:19.630Z,92.83
2022-08-22T00:53:53.627Z,92.86
2022-08-22T00:55:15.373Z,92.86
2022-08-22T00:56:29.561Z,92.99
2022-08-22T00:57:55.165Z,93.52
2022-08-22T00:59:23.036Z,93.52
2022-08-22T01:00:29.282Z,92.74
2022-08-22T01:01:40.881Z,92.74
2022-08-22T01:03:22.741Z,92.78
2022-08-22T01:04:29.441Z,92.60
2022-08-22T01:05:54.130Z,92.60
2022-08-22T01:07:15.816Z,92.81
2022-08-22T01:08:25.507Z,91.81
2022-08-22T01:09:51.780Z,92.04
2022-08-22T01:11:14.947Z,92.04
2022-08-22T01:12:27.472Z,91.46
2022-08-22T01:13:37.626Z,92.13
2022-08-22T01:15:01.945Z,92.13
2022-08-22T01:16:28.618Z,91.75
2022-08-22T01:17:47.066Z,91.75
2022-08-22T01:18:59.776Z,91.73
2022-08-22T01:20:12.335Z,91.95
2022-08-22T01:21:38.518Z,91.42
2022-08-22T01:23:02.979Z,91.33
2022-08-22T01:24:09.955Z,91.64
2022-08-22T01:25:42.428Z,91.64
2022-08-22T01:27:22.690Z,91.51
2022-08-22T01:28:53.508Z,91.65
2022-08-22T01:30:08.990Z,91.65
2022-08-22T01:31:39.942Z,92.43
2022-08-22T01:33:03.025Z,92.43
2022-08-22T01:34:27.748Z,92.44
2022-08-22T01:35:46.635Z,92.40
2022-08-22T01:36:56.523Z,92.40
2022-08-22T01:38:23.382Z,92.59
2022-08-22T01:39:47.832Z,92.84
2022-08-22T01:41:12.548Z,92.90
2022-08-22T01:42:37.420Z,92.80
2022-08-22T01:44:09.956Z,92.76
2022-08-22T01:45:25.345Z,92.76
2022-08-22T01:46:44.577Z,92.71
2022-08-22T01:47:53.612Z,92.95
2022-08-22T01:49:10.477Z,92.95
2022-08-22T01:50:23.413Z,93.00
2022-08-22T01:51:41.806Z,93.33
2022-08-22T01:52:54.666Z,93.33
2022-08-22T01:54:04.648Z,93.15
2022-08-22T01:55:33.088Z,93.51
2022-08-22T01:56:43.565Z,93.41
2022-08-22T01:57:53.621Z,93.41
2022-08-22T01:59:03.510Z,93.10
2022-08-22T02:00:10.742Z,93.00
2022-08-22T02:01:35.528Z,92.96
2022-08-22T02:03:03.529Z,92.90
2022-08-22T02:04:13.143Z,92.90
2022-08-22T02:05:26.150Z,92.83
2022-08-22T02:06:40.754Z,92.78
2022-08-22T02:08:11.171Z,92.83
2022-08-22T02:09:42.126Z,92.83
2022-08-22T02:11:08.039Z,93.15
2022-08-22T02:12:43.187Z,93.29
2022-08-22T02:13:55.688Z,93.28
2022-08-22T02:15:20.735Z,93.56
2022-08-22T02:16:41.120Z,93.56
2022-08-22T02:18:09.177Z,93.81
2022-08-22T02:19:20.747Z,93.34
2022-08-22T02:20:28.344Z,93.36
2022-08-22T02:23:55.978Z,93.56
2022-08-22T02:25:04.313Z,93.56
2022-08-22T02:26:19.068Z,93.78
2022-08-22T02:27:43.022Z,93.45
2022-08-22T02:28:57.196Z,93.55
2022-08-22T02:30:13.509Z,93.48
2022-08-22T02:31:20.477Z,93.81
2022-08-22T02:32:30.196Z,93.81
2022-08-22T02:33:37.197Z,93.67
2022-08-22T02:35:00.598Z,93.72
2022-08-22T02:36:23.852Z,93.66
2022-08-22T02:37:42.706Z,93.77
2022-08-22T02:39:10.128Z,93.77
2022-08-22T02:40:36.560Z,93.58
2022-08-22T02:42:01.550Z,93.65
2022-08-22T02:43:26.866Z,93.35
2022-08-22T02:44:33.902Z,93.35
2022-08-22T02:45:43.777Z,93.45
2022-08-22T02:47:20.284Z,93.91
2022-08-22T02:48:27.794Z,93.32
2022-08-22T02:49:43.869Z,93.32
2022-08-22T02:51:03.314Z,92.79
2022-08-22T02:52:16.425Z,92.49
2022-08-22T02:53:32.155Z,92.19
2022-08-22T02:54:58.445Z,92.19
2022-08-22T02:56:11.311Z,92.67
2022-08-22T02:57:34.560Z,92.09
2022-08-22T02:59:00.002Z,92.09
2022-08-22T03:00:06.755Z,92.00
2022-08-22T03:01:18.500Z,91.93
2022-08-22T03:02:41.224Z,91.96
2022-08-22T03:03:47.172Z,91.96
2022-08-22T03:04:57.064Z,92.10
2022-08-22T03:06:05.879Z,92.26
2022-08-22T03:07:33.438Z,92.26
2022-08-22T03:08:44.140Z,91.52
2022-08-22T03:10:04.137Z,91.52
2022-08-22T03:11:26.035Z,91.15
2022-08-22T03:12:44.766Z,91.42
2022-08-22T03:14:18.430Z,91.50
2022-08-22T03:15:49.694Z,91.03
2022-08-22T03:17:15.216Z,90.95
2022-08-22T03:18:27.895Z,90.95
2022-08-22T03:19:46.345Z,89.89
2022-08-22T03:21:26.930Z,90.09
2022-08-22T03:22:57.688Z,90.09
2022-08-22T03:24:16.377Z,88.74
2022-08-22T03:25:35.315Z,88.74
2022-08-22T03:26:55.427Z,87.67
2022-08-22T03:28:05.116Z,86.79
2022-08-22T03:29:28.696Z,86.79
2022-08-22T03:30:36.275Z,86.18
2022-08-22T03:31:46.207Z,85.12
2022-08-22T03:33:09.534Z,85.12
2022-08-22T03:34:16.665Z,84.48
2022-08-22T03:35:28.757Z,84.48
2022-08-22T03:36:35.069Z,84.30
2022-08-22T03:37:42.461Z,83.29
2022-08-22T03:39:14.946Z,83.29
2022-08-22T03:40:35.897Z,81.62
2022-08-22T03:41:51.741Z,81.62
2022-08-22T03:43:16.819Z,80.58
2022-08-22T03:44:23.776Z,79.13
2022-08-22T03:45:48.670Z,78.04
2022-08-22T03:47:17.933Z,77.60
2022-08-22T03:48:45.653Z,77.07
2022-08-22T03:51:32.009Z,75.81
2022-08-22T03:52:49.816Z,75.81
2022-08-22T03:53:59.454Z,74.33
2022-08-22T03:55:15.114Z,73.36
2022-08-22T03:56:48.533Z,73.36
2022-08-22T03:58:27.315Z,71.80
2022-08-22T03:59:47.692Z,71.80
2022-08-22T04:01:01.711Z,71.38
2022-08-22T04:02:31.538Z,70.40
2022-08-22T04:03:38.335Z,70.40
2022-08-22T04:04:50.944Z,69.66
2022-08-22T04:06:22.918Z,68.86
2022-08-22T04:07:32.096Z,67.92
2022-08-22T04:09:08.316Z,67.59
2022-08-22T04:10:32.058Z,66.53
2022-08-22T04:11:41.485Z,66.57
2022-08-22T04:12:57.134Z,65.98
2022-08-22T04:14:38.546Z,65.98
2022-08-22T04:16:01.556Z,64.96
2022-08-22T04:17:30.722Z,64.96
2022-08-22T04:18:53.914Z,63.04
2022-08-22T04:20:22.519Z,63.91
2022-08-22T04:21:48.767Z,62.29
2022-08-22T04:23:10.572Z,63.02
2022-08-22T04:24:32.345Z,63.02
2022-08-22T04:25:39.321Z,61.43
2022-08-22T04:26:52.141Z,60.97
2022-08-22T04:28:08.029Z,60.97
2022-08-22T04:29:32.937Z,61.85
2022-08-22T04:30:49.136Z,61.02
2022-08-22T04:32:00.494Z,61.02
2022-08-22T04:33:24.009Z,60.42
2022-08-22T04:34:30.996Z,59.42
2022-08-22T04:35:37.975Z,59.42
2022-08-22T04:36:47.906Z,58.11
2022-08-22T04:37:57.770Z,58.11
2022-08-22T04:39:15.057Z,56.72
2022-08-22T04:40:31.108Z,56.72
2022-08-22T04:41:43.756Z,56.25
2022-08-22T04:43:07.132Z,57.88
2022-08-22T04:44:17.172Z,57.88
2022-08-22T04:45:24.162Z,56.47
2022-08-22T04:46:40.714Z,56.01
2022-08-22T04:47:56.863Z,56.17
2022-08-22T04:49:09.707Z,55.90
2022-08-22T04:50:34.836Z,55.90
2022-08-22T04:51:44.675Z,55.63
2022-08-22T04:53:06.621Z,55.68
2022-08-22T04:54:36.872Z,56.24
2022-08-22T04:55:55.999Z,55.47
2022-08-22T04:57:18.174Z,56.67
2022-08-22T04:58:33.701Z,58.16
2022-08-22T04:59:39.084Z,56.80
2022-08-22T05:00:58.004Z,58.90
2022-08-22T05:02:04.893Z,58.90
2022-08-22T05:03:11.950Z,58.06
2022-08-22T05:04:21.557Z,59.53
2022-08-22T05:05:30.151Z,60.40
2022-08-22T05:06:37.210Z,61.00
2022-08-22T05:07:44.186Z,59.99
2022-08-22T05:08:53.948Z,59.99
2022-08-22T05:10:11.621Z,58.68
2022-08-22T05:11:12.616Z,59.41
2022-08-22T05:12:22.418Z,60.38
2022-08-22T05:13:38.111Z,60.38
2022-08-22T05:14:49.345Z,57.91
2022-08-22T05:15:56.357Z,57.91
2022-08-22T05:17:02.067Z,58.01
2022-08-22T05:18:09.066Z,56.93
2022-08-22T05:19:29.619Z,55.86
2022-08-22T05:20:30.512Z,56.67
2022-08-22T05:21:37.522Z,56.67
2022-08-22T05:22:44.496Z,55.80
2022-08-22T05:23:53.994Z,55.16
2022-08-22T05:25:04.016Z,54.10
2022-08-22T05:26:09.290Z,53.80
2022-08-22T05:27:16.290Z,53.80
2022-08-22T05:28:26.348Z,53.08
2022-08-22T05:29:32.916Z,52.22
2022-08-22T05:30:39.921Z,51.27
2022-08-22T05:31:49.635Z,51.16
2022-08-22T05:32:56.630Z,50.41
2022-08-22T05:34:06.378Z,50.41
2022-08-22T05:35:13.852Z,49.81
2022-08-22T05:36:30.524Z,48.94
2022-08-22T05:37:37.120Z,48.94
2022-08-22T05:38:52.897Z,47.93
2022-08-22T05:40:00.221Z,49.00
2022-08-22T05:41:11.791Z,49.00
2022-08-22T05:42:24.412Z,49.21
2022-08-22T05:43:28.708Z,49.30
2022-08-22T05:44:35.704Z,46.87
2022-08-22T05:45:42.863Z,46.63
2022-08-22T05:47:01.875Z,45.49
2022-08-22T05:48:14.499Z,46.39
2022-08-22T05:49:40.892Z,46.40
2022-08-22T05:50:57.045Z,46.40
2022-08-22T05:52:18.748Z,46.67
2022-08-22T05:53:39.325Z,46.67
2022-08-22T05:54:55.099Z,45.16
2022-08-22T05:56:04.881Z,44.21
2022-08-22T05:57:17.566Z,44.21
2022-08-22T05:58:50.199Z,44.33
2022-08-22T05:59:59.981Z,44.33
2022-08-22T06:01:23.532Z,44.74
2022-08-22T06:02:30.578Z,44.74
2022-08-22T06:03:40.604Z,45.62
2022-08-22T06:04:50.320Z,44.78
2022-08-22T06:05:58.721Z,46.22
2022-08-22T06:07:14.690Z,46.63
2022-08-22T06:08:24.653Z,46.63
2022-08-22T06:09:35.778Z,46.06
2022-08-22T06:10:49.040Z,47.65
2022-08-22T06:12:03.205Z,47.65
2022-08-22T06:13:24.648Z,46.66
2022-08-22T06:14:42.965Z,47.38
2022-08-22T06:16:09.564Z,47.38
2022-08-22T06:17:19.511Z,46.89
2022-08-22T06:18:26.755Z,47.36
2022-08-22T06:19:33.291Z,47.36
2022-08-22T06:20:58.433Z,47.42
2022-08-22T06:22:05.259Z,47.55
2022-08-22T06:23:12.247Z,47.55
2022-08-22T06:24:22.240Z,46.04
2022-08-22T06:25:29.301Z,47.06
2022-08-22T06:26:37.856Z,46.28
2022-08-22T06:27:45.758Z,47.54
2022-08-22T06:28:57.663Z,47.54
2022-08-22T06:30:04.793Z,47.19
2022-08-22T06:31:14.510Z,47.75
2022-08-22T06:32:32.631Z,47.81
2022-08-22T06:33:32.883Z,47.87
2022-08-22T06:34:41.543Z,47.62
2022-08-22T06:35:58.763Z,47.62
2022-08-22T06:37:08.529Z,47.15
2022-08-22T06:38:14.258Z,45.60
2022-08-22T06:39:26.767Z,45.60
2022-08-22T06:40:31.469Z,47.01
2022-08-22T06:41:42.755Z,46.69
2022-08-22T06:42:50.137Z,46.69
2022-08-22T06:43:56.033Z,47.69
2022-08-22T06:45:03.044Z,47.29
2022-08-22T06:46:09.115Z,47.71
2022-08-22T06:47:24.936Z,47.17
2022-08-22T06:48:29.283Z,47.16
2022-08-22T06:49:36.299Z,47.16
2022-08-22T06:50:44.040Z,46.89
2022-08-22T06:51:49.637Z,48.42
2022-08-22T06:53:14.328Z,48.42
2022-08-22T06:54:21.719Z,47.60
2022-08-22T06:55:28.838Z,48.91
2022-08-22T06:56:36.338Z,47.42
2022-08-22T06:57:52.185Z,47.42
2022-08-22T06:58:59.193Z,46.51
2022-08-22T07:00:09.101Z,46.29
2022-08-22T07:01:16.438Z,47.36
2022-08-22T07:02:32.106Z,47.36
2022-08-22T07:03:40.986Z,46.26
2022-08-22T07:04:49.521Z,45.26
2022-08-22T07:05:56.241Z,45.34
2022-08-22T07:07:01.948Z,45.20
2022-08-22T07:08:13.347Z,45.04
2022-08-22T07:09:21.866Z,45.77
2022-08-22T07:10:27.008Z,44.99
2022-08-22T07:11:36.675Z,44.99
2022-08-22T07:12:45.262Z,45.00
2022-08-22T07:13:52.237Z,44.47
2022-08-22T07:15:01.799Z,44.47
2022-08-22T07:16:09.328Z,44.63
2022-08-22T07:17:25.093Z,44.91
2022-08-22T07:18:30.243Z,44.10
2022-08-22T07:19:40.013Z,44.01
2022-08-22T07:20:48.782Z,44.77
2022-08-22T07:21:53.173Z,44.70
2022-08-22T07:23:03.132Z,44.70
2022-08-22T07:24:09.739Z,44.72
2022-08-22T07:25:16.357Z,44.72
2022-08-22T07:26:29.789Z,45.26
2022-08-22T07:27:48.862Z,43.84
2022-08-22T07:28:58.730Z,43.68
2022-08-22T07:30:10.038Z,43.68
2022-08-22T07:31:18.883Z,43.35
2022-08-22T07:32:42.216Z,43.94
2022-08-22T07:33:54.934Z,43.43
2022-08-22T07:35:04.682Z,43.43
2022-08-22T07:36:25.065Z,44.76
2022-08-22T07:37:54.771Z,43.67
2022-08-22T07:39:11.217Z,43.67
2022-08-22T07:40:34.609Z,43.04
2022-08-22T07:41:57.767Z,42.84
2022-08-22T07:43:16.816Z,43.13
2022-08-22T07:44:25.795Z,43.13
2022-08-22T07:45:41.161Z,42.96
2022-08-22T07:46:53.904Z,43.19
2022-08-22T07:48:25.882Z,42.90
2022-08-22T07:49:32.036Z,42.90
2022-08-22T07:50:41.150Z,43.09
2022-08-22T07:51:59.893Z,43.09
2022-08-22T07:53:12.186Z,43.53
2022-08-22T07:54:26.485Z,43.84
2022-08-22T07:55:29.684Z,43.58
2022-08-22T07:56:38.780Z,43.58
2022-08-22T07:57:45.536Z,42.57
2022-08-22T07:58:54.601Z,42.82
2022-08-22T08:00:01.467Z,43.09
2022-08-22T08:01:08.566Z,44.21
2022-08-22T08:02:15.698Z,44.47
2022-08-22T08:03:22.183Z,42.93
2022-08-22T08:04:39.547Z,43.32
2022-08-22T08:05:43.075Z,42.78
2022-08-22T08:06:51.320Z,42.78
2022-08-22T08:08:00.457Z,43.79
2022-08-22T08:09:05.170Z,44.64
2022-08-22T08:10:14.246Z,44.64
2022-08-22T08:11:20.512Z,44.70
2022-08-22T08:12:36.238Z,44.77
2022-08-22T08:13:45.948Z,44.74
2022-08-22T08:14:52.929Z,44.18
2022-08-22T08:15:57.336Z,44.18
2022-08-22T08:17:07.056Z,44.67
2022-08-22T08:18:14.065Z,44.70
2022-08-22T08:19:20.074Z,42.79
2022-08-22T08:20:27.203Z,42.79
2022-08-22T08:21:49.262Z,43.60
2022-08-22T08:22:54.914Z,44.11
2022-08-22T08:24:01.428Z,45.58
2022-08-22T08:25:09.209Z,45.58
2022-08-22T08:26:25.725Z,44.93
2022-08-22T08:27:32.693Z,45.44
2022-08-22T08:28:43.927Z,45.44
2022-08-22T08:29:56.878Z,46.09
2022-08-22T08:31:12.703Z,43.96
2022-08-22T08:32:18.947Z,44.36
2022-08-22T08:33:26.828Z,44.36
2022-08-22T08:34:32.025Z,43.60
2022-08-22T08:35:42.476Z,43.61
2022-08-22T08:36:52.284Z,43.32
2022-08-22T08:38:08.586Z,43.32
2022-08-22T08:39:35.453Z,42.76
2022-08-22T08:40:54.951Z,43.86
2022-08-22T08:42:14.341Z,44.09
2022-08-22T08:43:29.981Z,44.41
2022-08-22T08:44:42.697Z,44.41
2022-08-22T08:45:56.382Z,44.72
2022-08-22T08:47:15.023Z,43.04
2022-08-22T08:48:47.590Z,43.18
2022-08-22T08:50:06.852Z,43.52
2022-08-22T08:51:31.862Z,42.53
2022-08-22T08:52:52.587Z,42.53
2022-08-22T08:54:18.576Z,41.15
2022-08-22T08:55:32.066Z,41.95
2022-08-22T08:56:45.043Z,41.95
2022-08-22T08:58:22.232Z,41.44
2022-08-22T08:59:29.705Z,40.90
2022-08-22T09:01:12.739Z,41.07
2022-08-22T09:02:40.651Z,41.07
2022-08-22T09:04:06.309Z,41.73
2022-08-22T09:05:31.204Z,41.90
2022-08-22T09:06:59.332Z,42.93
2022-08-22T09:08:30.446Z,42.93
2022-08-22T09:09:40.920Z,42.75
2022-08-22T09:10:47.991Z,42.75
2022-08-22T09:12:23.446Z,42.95
2022-08-22T09:13:52.759Z,43.47
2022-08-22T09:15:16.405Z,43.72
2022-08-22T09:16:35.409Z,44.42
2022-08-22T09:17:42.664Z,44.87
2022-08-22T09:18:58.346Z,43.70
2022-08-22T09:20:18.051Z,44.38
2022-08-22T09:21:31.242Z,44.81
2022-08-22T09:23:10.834Z,44.59
2022-08-22T09:24:35.687Z,42.39
2022-08-22T09:25:51.346Z,42.39
2022-08-22T09:26:58.589Z,43.04
2022-08-22T09:28:17.681Z,43.78
2022-08-22T09:29:54.466Z,43.61
2022-08-22T09:31:00.122Z,43.61
2022-08-22T09:32:26.767Z,43.28
2022-08-22T09:33:51.771Z,43.41
2022-08-22T09:35:18.655Z,43.41
2022-08-22T09:36:26.401Z,42.20
2022-08-22T09:37:39.283Z,42.06
2022-08-22T09:39:03.045Z,42.37
2022-08-22T09:41:42.243Z,41.53
2022-08-22T09:43:03.432Z,42.94
2022-08-22T09:44:19.100Z,42.94
2022-08-22T09:45:50.075Z,41.56
2022-08-22T09:47:13.874Z,41.43
2022-08-22T09:48:52.904Z,41.81
2022-08-22T09:50:08.811Z,41.81
2022-08-22T09:51:32.245Z,40.28
2022-08-22T09:53:01.052Z,40.90
2022-08-22T09:54:31.131Z,40.90
2022-08-22T09:56:00.458Z,40.81
2022-08-22T09:57:10.375Z,39.07
2022-08-22T09:58:41.935Z,40.10
2022-08-22T09:59:48.966Z,39.04
2022-08-22T10:01:03.241Z,39.01
2022-08-22T10:02:36.172Z,39.09
2022-08-22T10:04:05.884Z,39.37
2022-08-22T10:05:40.872Z,39.12
2022-08-22T10:06:45.819Z,39.12
2022-08-22T10:08:12.037Z,38.26
2022-08-22T10:09:26.436Z,39.01
2022-08-22T10:10:51.892Z,39.01
2022-08-22T10:12:03.284Z,38.74
2022-08-22T10:13:17.272Z,39.78
2022-08-22T10:14:27.273Z,36.75
2022-08-22T10:15:39.808Z,36.68
2022-08-22T10:16:58.636Z,36.44
2022-08-22T10:18:20.388Z,37.01
2022-08-22T10:19:34.622Z,38.07
2022-08-22T10:20:50.281Z,37.79
2022-08-22T10:22:29.896Z,37.80
2022-08-22T10:23:32.927Z,37.42
2022-08-22T10:24:55.987Z,38.23
2022-08-22T10:26:22.989Z,37.63
2022-08-22T10:27:39.912Z,37.63
2022-08-22T10:28:58.436Z,37.55
2022-08-22T10:30:16.478Z,36.94
2022-08-22T10:31:33.123Z,36.94
2022-08-22T10:33:03.821Z,37.31
2022-08-22T10:34:15.271Z,38.68
2022-08-22T10:35:40.069Z,38.04
2022-08-22T10:36:57.786Z,38.72
2022-08-22T10:38:25.085Z,38.72
2022-08-22T10:39:32.584Z,38.84
2022-08-22T10:40:45.308Z,39.19
2022-08-22T10:42:10.228Z,37.97
2022-08-22T10:43:17.234Z,37.97
2022-08-22T10:45:54.964Z,37.75
2022-08-22T10:47:13.983Z,39.43
2022-08-22T10:48:36.073Z,39.43
2022-08-22T10:49:52.134Z,38.30
2022-08-22T10:51:08.587Z,39.24
2022-08-22T10:52:16.673Z,39.24
2022-08-22T10:53:39.691Z,36.88
2022-08-22T10:54:49.224Z,36.88
2022-08-22T10:55:56.154Z,36.15
2022-08-22T10:57:24.562Z,35.71
2022-08-22T10:58:31.583Z,36.44
2022-08-22T10:59:41.506Z,36.44
2022-08-22T11:01:00.639Z,35.71
2022-08-22T11:02:28.312Z,36.02
2022-08-22T11:03:42.654Z,37.57
2022-08-22T11:05:15.068Z,36.89
2022-08-22T11:06:29.436Z,36.89
2022-08-22T11:07:51.594Z,36.68
2022-08-22T11:09:16.605Z,37.08
2022-08-22T11:10:34.893Z,37.08
2022-08-22T11:11:44.334Z,38.22
2022-08-22T11:12:52.879Z,35.83
2022-08-22T11:14:11.786Z,35.19
2022-08-22T11:15:35.358Z,35.19
2022-08-22T11:16:58.497Z,35.96
2022-08-22T11:18:30.516Z,35.96
2022-08-22T11:20:03.330Z,36.25
2022-08-22T11:21:12.844Z,35.14
2022-08-22T11:22:41.995Z,36.65
2022-08-22T11:24:00.397Z,36.01
2022-08-22T11:25:38.930Z,36.01
2022-08-22T11:26:47.813Z,35.00
2022-08-22T11:28:02.884Z,35.28
2022-08-22T11:29:30.297Z,35.28
2022-08-22T11:30:44.727Z,35.24
2022-08-22T11:32:05.785Z,35.12
2022-08-22T11:33:09.502Z,35.06
2022-08-22T11:34:45.269Z,34.44
2022-08-22T11:36:04.489Z,33.90
2022-08-22T11:37:18.759Z,33.90
2022-08-22T11:38:48.364Z,35.00
2022-08-22T11:40:21.935Z,35.00
2022-08-22T11:41:43.439Z,34.93
2022-08-22T11:42:59.483Z,34.68
2022-08-22T11:44:16.975Z,33.81
2022-08-22T11:45:24.406Z,33.88
2022-08-22T11:46:34.125Z,33.88
2022-08-22T11:47:52.331Z,34.77
2022-08-22T11:49:12.611Z,34.77
2022-08-22T11:50:26.034Z,35.11
2022-08-22T11:51:34.380Z,35.43
2022-08-22T11:52:52.647Z,35.83
2022-08-22T11:54:05.034Z,37.22
2022-08-22T11:55:14.701Z,36.94
2022-08-22T11:56:33.412Z,36.94
2022-08-22T11:57:44.863Z,37.57
2022-08-22T11:59:07.043Z,36.25
2022-08-22T12:00:35.200Z,35.48
2022-08-22T12:01:58.843Z,35.53
2022-08-22T12:03:23.891Z,35.53
2022-08-22T12:04:44.414Z,36.94
2022-08-22T12:06:03.186Z,37.56
2022-08-22T12:07:10.198Z,36.95
2022-08-22T12:08:21.376Z,36.60
2022-08-22T12:09:38.027Z,36.60
2022-08-22T12:11:00.295Z,36.90
2022-08-22T12:12:21.094Z,37.24
2022-08-22T12:13:52.256Z,37.59
2022-08-22T12:15:24.977Z,36.51
2022-08-22T12:16:41.117Z,37.47
2022-08-22T12:18:24.307Z,37.47
2022-08-22T12:20:14.390Z,36.68
2022-08-22T12:21:15.280Z,36.50
2022-08-22T12:22:55.456Z,36.43
2022-08-22T12:24:19.435Z,36.43
2022-08-22T12:25:47.093Z,37.30
2022-08-22T12:27:12.461Z,37.30
2022-08-22T12:28:31.446Z,37.09
2022-08-22T12:29:44.893Z,38.67
2022-08-22T12:30:51.739Z,37.66
2022-08-22T12:32:10.379Z,37.66
2022-08-22T12:33:33.345Z,36.81
2022-08-22T12:34:56.867Z,36.72
2022-08-22T12:36:26.803Z,36.72
2022-08-22T12:37:35.685Z,37.51
2022-08-22T12:39:10.483Z,38.62
2022-08-22T12:40:37.274Z,38.04
2022-08-22T12:42:04.853Z,39.21
2022-08-22T12:43:26.577Z,39.21
2022-08-22T12:44:36.588Z,39.26
2022-08-22T12:46:07.501Z,39.72
2022-08-22T12:47:24.730Z,39.46
2022-08-22T12:49:07.701Z,38.66
2022-08-22T12:50:21.534Z,38.66
2022-08-22T12:51:34.077Z,38.57
2022-08-22T12:53:09.407Z,38.34
2022-08-22T12:54:44.239Z,38.34
2022-08-22T12:56:23.761Z,38.83
2022-08-22T12:57:32.305Z,38.55
2022-08-22T12:58:58.238Z,38.91
2022-08-22T13:00:13.854Z,39.08
2022-08-22T13:01:18.616Z,37.99
2022-08-22T13:02:30.472Z,38.25
2022-08-22T13:03:39.414Z,38.25
2022-08-22T13:04:49.216Z,38.11
2022-08-22T13:05:56.770Z,38.11
2022-08-22T13:07:07.013Z,38.56
2022-08-22T13:08:15.854Z,38.56
2022-08-22T13:09:32.825Z,37.93
2022-08-22T13:10:54.368Z,37.48
2022-08-22T13:12:19.915Z,36.78
2022-08-22T13:13:31.616Z,37.63
2022-08-22T13:14:38.363Z,37.69
2022-08-22T13:15:57.293Z,37.62
2022-08-22T13:18:30.538Z,36.81
2022-08-22T13:19:25.672Z,36.47
2022-08-22T13:20:35.375Z,35.78
2022-08-22T13:21:43.342Z,36.32
2022-08-22T13:22:50.643Z,36.32
2022-08-22T13:23:58.399Z,35.80
2022-08-22T13:25:28.826Z,37.41
2022-08-22T13:26:37.689Z,37.49
2022-08-22T13:27:50.747Z,36.87
2022-08-22T13:29:25.009Z,36.68
2022-08-22T13:31:46.487Z,36.19
2022-08-22T13:32:55.210Z,37.03
2022-08-22T13:34:02.102Z,37.03
2022-08-22T13:35:08.591Z,37.85
2022-08-22T13:36:20.375Z,36.77
2022-08-22T13:37:27.609Z,37.80
2022-08-22T13:38:52.471Z,37.80
2022-08-22T13:40:01.963Z,38.56
2022-08-22T13:41:08.488Z,38.56
2022-08-22T13:42:29.828Z,39.32
2022-08-22T13:43:33.951Z,40.19
2022-08-22T13:44:43.827Z,39.00
2022-08-22T13:45:56.958Z,39.91
2022-08-22T13:47:14.409Z,40.48
2022-08-22T13:48:13.913Z,41.30
2022-08-22T13:49:22.937Z,41.30
2022-08-22T13:50:53.630Z,40.34
2022-08-22T13:51:47.656Z,41.02
2022-08-22T13:52:57.325Z,40.59
2022-08-22T13:54:13.224Z,40.06
2022-08-22T13:55:23.023Z,41.08
2022-08-22T13:56:31.987Z,41.08
2022-08-22T13:57:52.145Z,41.29
2022-08-22T13:58:59.270Z,41.39
2022-08-22T14:00:10.767Z,41.47
2022-08-22T14:01:18.141Z,41.02
2022-08-22T14:02:34.336Z,41.64
2022-08-22T14:04:53.446Z,42.44
2022-08-22T14:05:22.352Z,42.73
2022-08-22T14:06:32.517Z,40.84
2022-08-22T14:07:09.286Z,40.84
2022-08-22T14:08:28.721Z,41.94
2022-08-22T14:09:56.723Z,40.61
2022-08-22T14:11:06.694Z,40.97
2022-08-22T14:12:12.801Z,41.68
2022-08-22T14:13:37.889Z,41.68
2022-08-22T14:14:45.884Z,42.00
2022-08-22T14:15:51.882Z,42.25
2022-08-22T14:16:59.723Z,42.06
2022-08-22T14:18:18.494Z,42.00
2022-08-22T14:19:30.283Z,42.85
2022-08-22T14:20:39.516Z,41.78
2022-08-22T14:21:47.341Z,41.78
2022-08-22T14:22:58.914Z,41.31
2022-08-22T14:24:05.937Z,41.33
2022-08-22T14:25:21.773Z,41.53
2022-08-22T14:26:33.245Z,42.15
2022-08-22T14:27:41.321Z,40.92
2022-08-22T14:28:48.853Z,40.92
2022-08-22T14:29:58.547Z,41.56
2022-08-22T14:31:05.201Z,40.42
2022-08-22T14:32:28.545Z,40.42
2022-08-22T14:33:46.051Z,41.19
2022-08-22T14:34:54.341Z,41.19
2022-08-22T14:36:02.277Z,41.90
2022-08-22T14:37:11.750Z,40.85
2022-08-22T14:38:33.710Z,40.85
2022-08-22T14:39:43.720Z,42.10
2022-08-22T14:40:54.409Z,42.10
2022-08-22T14:42:11.980Z,42.90
2022-08-22T14:43:33.026Z,41.94
2022-08-22T14:44:54.793Z,41.94
2022-08-22T14:46:10.342Z,42.20
2022-08-22T14:47:32.235Z,41.92
2022-08-22T14:48:42.442Z,41.76
2022-08-22T14:49:51.152Z,41.64
2022-08-22T14:51:04.085Z,41.64
2022-08-22T14:52:19.707Z,42.62
2022-08-22T14:53:25.352Z,42.71
2022-08-22T14:54:31.241Z,42.62
2022-08-22T14:55:38.423Z,42.62
2022-08-22T14:56:44.905Z,43.09
2022-08-22T14:57:58.112Z,43.09
2022-08-22T14:59:05.201Z,42.60
2022-08-22T15:00:11.568Z,42.60
2022-08-22T15:01:21.645Z,42.11
2022-08-22T15:02:32.098Z,42.11
2022-08-22T15:03:38.064Z,42.75
2022-08-22T15:04:46.221Z,42.44
2022-08-22T15:06:02.712Z,42.44
2022-08-22T15:07:08.493Z,43.16
2022-08-22T15:08:14.835Z,43.71
2022-08-22T15:09:42.206Z,43.01
2022-08-22T15:10:48.540Z,43.01
2022-08-22T15:11:53.470Z,43.58
2022-08-22T15:13:01.651Z,42.91
2022-08-22T15:14:13.507Z,42.67
2022-08-22T15:15:53.568Z,43.34
2022-08-22T15:16:53.199Z,42.81
2022-08-22T15:17:57.825Z,43.06
2022-08-22T15:19:04.110Z,44.07
2022-08-22T15:20:15.617Z,43.98
2022-08-22T15:21:33.538Z,43.98
2022-08-22T15:22:36.098Z,43.86
2022-08-22T15:23:45.465Z,43.72
2022-08-22T15:24:58.157Z,44.02
2022-08-22T15:26:13.141Z,43.75
2022-08-22T15:27:21.862Z,43.93
2022-08-22T15:28:26.597Z,44.03
2022-08-22T15:29:52.942Z,43.89
2022-08-22T15:31:03.436Z,43.72
2022-08-22T15:32:09.726Z,44.47
2022-08-22T15:33:30.332Z,44.47
2022-08-22T15:34:43.110Z,44.46
2022-08-22T15:35:48.046Z,44.36
2022-08-22T15:37:16.112Z,44.26
2022-08-22T15:38:30.268Z,44.92
2022-08-22T15:39:58.007Z,45.01
2022-08-22T15:41:31.544Z,45.15
2022-08-22T15:42:48.458Z,45.15
2022-08-22T15:44:32.360Z,45.12
2022-08-22T15:45:33.756Z,45.61
2022-08-22T15:47:27.691Z,45.73
2022-08-22T15:48:28.477Z,45.73
2022-08-22T15:49:43.848Z,45.62
2022-08-22T15:51:02.958Z,45.87
2022-08-22T15:52:25.920Z,45.54
2022-08-22T15:53:45.944Z,45.54
2022-08-22T15:55:16.074Z,45.53
2022-08-22T15:56:33.559Z,45.51
2022-08-22T15:57:41.764Z,45.51
2022-08-22T15:58:53.418Z,45.97
2022-08-22T16:00:02.197Z,46.40
2022-08-22T16:01:20.666Z,46.40
2022-08-22T16:02:35.887Z,46.05
2022-08-22T16:03:43.032Z,46.57
2022-08-22T16:04:51.585Z,46.15
2022-08-22T16:06:04.595Z,46.15
2022-08-22T16:07:31.352Z,45.30
2022-08-22T16:08:55.222Z,45.30
2022-08-22T16:10:00.759Z,46.34
2022-08-22T16:11:09.788Z,46.52
2022-08-22T16:12:32.969Z,46.71
2022-08-22T16:13:38.736Z,46.32
2022-08-22T16:14:52.286Z,46.75
2022-08-22T16:16:02.332Z,46.75
2022-08-22T16:17:09.389Z,47.24
2022-08-22T16:18:37.240Z,47.41
2022-08-22T16:19:45.816Z,47.87
2022-08-22T16:20:52.936Z,47.87
2022-08-22T16:22:02.807Z,47.19
2022-08-22T16:23:07.399Z,47.65